Time;durP1;ratioP1;P1;durP2;ratioP2;P2;SDS_P1;SDS_P2;PMS_P1;PMS_P2;Temp;Humidity;BMP_temperature;BMP_pressure;BME280_temperature;BME280_humidity;BME280_pressure;Samples;Min_cycle;Max_cycle;Signal;HPM_P1;HPM_P2
2023/05/02 00:02:49;;;;;;;;;;;;;;;20.06;46.38;95702.06;10240090;28;2099;-65
2023/05/02 00:07:52;;;;;;;;;;;;;;;20.03;46.66;95704.47;10244321;28;1972;-65
2023/05/02 00:12:52;;;;;;;;;;;;;;;20.04;46.35;95701.56;10226226;28;2199;-64
2023/05/02 00:17:52;;;;;;;;;;;;;;;20.04;46.54;95703.38;10235715;28;2037;-65
2023/05/02 00:22:54;;;;;;;;;;;;;;;20.02;46.45;95700.25;10235286;28;2090;-65
2023/05/02 00:27:54;;;;;;;;;;;;;;;20.02;46.54;95701.03;10250294;28;2429;-64
2023/05/02 00:32:55;;;;;;;;;;;;;;;20.01;46.39;95696.81;10244947;28;2415;-65
2023/05/02 00:37:55;;;;;;;;;;;;;;;20.01;46.52;95703.94;10239707;28;1993;-65
2023/05/02 00:42:55;;;;;;;;;;;;;;;20.01;46.36;95688.16;10231961;28;2008;-65
2023/05/02 00:47:56;;;;;;;;;;;;;;;19.99;46.40;95691.03;10238305;28;2029;-65
2023/05/02 00:52:56;;;;;;;;;;;;;;;19.99;46.45;95692.91;10237458;28;4900;-65
2023/05/02 00:57:56;;;;;;;;;;;;;;;19.98;46.57;95692.09;10238041;28;2106;-65
2023/05/02 01:02:58;;;;;;;;;;;;;;;19.97;46.25;95695.03;10235414;28;1987;-65
2023/05/02 01:08:09;;;;;;;;;;;;;;;19.96;46.30;95696.84;10241116;28;2018;-65
2023/05/02 01:13:11;;;;;;;;;;;;;;;19.96;46.49;95701.31;10239731;28;2011;-65
2023/05/02 01:18:11;;;;;;;;;;;;;;;19.97;46.55;95697.66;10246773;28;1919;-65
2023/05/02 01:23:30;;;;;;;;;;;;;;;19.95;46.24;95695.25;10244401;28;2147;-65
2023/05/02 01:28:35;;;;;;;;;;;;;;;19.94;46.40;95695.53;10247122;28;1930;-65
2023/05/02 01:33:35;;;;;;;;;;;;;;;19.95;46.25;95702.38;10253030;28;1930;-65
2023/05/02 01:38:36;;;;;;;;;;;;;;;19.92;46.26;95702.91;10235892;28;1988;-67
2023/05/02 01:43:36;;;;;;;;;;;;;;;19.92;46.36;95706.34;10230265;28;2278;-66
2023/05/02 01:48:36;;;;;;;;;;;;;;;19.92;46.19;95706.34;10250917;28;4813;-64
2023/05/02 01:53:36;;;;;;;;;;;;;;;19.92;46.34;95706.34;10234078;28;2061;-65
2023/05/02 01:58:37;;;;;;;;;;;;;;;19.91;46.22;95709.22;10236552;28;2167;-66
2023/05/02 02:03:37;;;;;;;;;;;;;;;19.90;46.27;95708.47;10242898;28;1985;-66
2023/05/02 02:08:37;;;;;;;;;;;;;;;19.90;46.36;95711.09;10248936;28;1968;-67
2023/05/02 02:13:43;;;;;;;;;;;;;;;19.90;46.20;95731.34;10246552;28;1958;-66
2023/05/02 02:18:44;;;;;;;;;;;;;;;19.88;46.14;95726.34;10238515;28;2126;-66
2023/05/02 02:23:46;;;;;;;;;;;;;;;19.88;46.13;95725.56;10242261;28;2040;-65
2023/05/02 02:28:46;;;;;;;;;;;;;;;19.88;46.07;95736.09;10249406;28;2102;-66
2023/05/02 02:33:47;;;;;;;;;;;;;;;19.88;46.23;95736.09;10247594;28;1932;-66
2023/05/02 02:38:49;;;;;;;;;;;;;;;19.88;46.18;95733.47;10243098;28;1957;-66
2023/05/02 02:43:58;;;;;;;;;;;;;;;19.86;46.19;95743.47;10240229;28;1923;-66
2023/05/02 02:49:11;;;;;;;;;;;;;;;19.86;46.19;95740.81;10234732;28;4886;-66
2023/05/02 02:54:32;;;;;;;;;;;;;;;19.85;46.26;95744.50;10231103;28;1968;-65
2023/05/02 02:59:33;;;;;;;;;;;;;;;19.85;46.15;95741.88;10240992;28;1977;-66
2023/05/02 03:04:34;;;;;;;;;;;;;;;19.84;46.13;95750.84;10226677;28;2090;-66
2023/05/02 03:09:41;;;;;;;;;;;;;;;19.83;45.97;95751.88;10235438;28;2367;-66
2023/05/02 03:14:41;;;;;;;;;;;;;;;19.83;45.92;95754.50;10233945;28;2182;-65
2023/05/02 03:19:41;;;;;;;;;;;;;;;19.82;46.19;95768.72;10226864;28;2526;-65
2023/05/02 03:24:42;;;;;;;;;;;;;;;19.82;45.94;95766.88;10234844;28;1973;-65
2023/05/02 03:29:42;;;;;;;;;;;;;;;19.81;45.92;95767.13;10239375;28;2121;-65
2023/05/02 03:34:42;;;;;;;;;;;;;;;19.81;46.11;95767.94;10231488;28;2183;-65
2023/05/02 03:39:43;;;;;;;;;;;;;;;19.80;46.16;95773.47;10230380;28;2005;-66
2023/05/02 03:44:43;;;;;;;;;;;;;;;19.80;45.94;95770.84;10236099;28;1970;-66
2023/05/02 03:49:43;;;;;;;;;;;;;;;19.78;46.01;95773.75;10244061;28;5134;-65
2023/05/02 03:54:44;;;;;;;;;;;;;;;19.78;45.94;95775.56;10226712;28;2060;-66
2023/05/02 03:59:44;;;;;;;;;;;;;;;19.79;45.85;95790.28;10231987;28;1993;-65
2023/05/02 04:04:44;;;;;;;;;;;;;;;19.77;45.85;95787.94;10239858;28;2416;-65
2023/05/02 04:09:45;;;;;;;;;;;;;;;19.77;46.02;95801.09;10239017;28;2195;-65
2023/05/02 04:14:45;;;;;;;;;;;;;;;19.82;46.46;95805.56;10236278;28;1975;-65
2023/05/02 04:19:45;;;;;;;;;;;;;;;19.86;46.31;95804.75;10227934;28;2004;-65
2023/05/02 04:24:46;;;;;;;;;;;;;;;19.92;46.41;95816.84;10219543;28;2121;-65
2023/05/02 04:29:49;;;;;;;;;;;;;;;19.97;46.18;95808.16;10231673;28;1996;-65
2023/05/02 04:34:50;;;;;;;;;;;;;;;20.07;46.10;95813.38;10236372;28;1992;-65
2023/05/02 04:39:50;;;;;;;;;;;;;;;20.15;45.60;95821.47;10227030;28;2093;-65
2023/05/02 04:44:50;;;;;;;;;;;;;;;20.22;45.56;95834.38;10229349;28;1958;-66
2023/05/02 04:49:51;;;;;;;;;;;;;;;20.27;45.40;95840.44;10239950;28;4885;-65
2023/05/02 04:54:51;;;;;;;;;;;;;;;20.34;45.40;95849.91;10230648;28;1914;-65
2023/05/02 04:59:51;;;;;;;;;;;;;;;20.37;44.63;95850.13;10230954;28;2000;-65
2023/05/02 05:04:52;;;;;;;;;;;;;;;20.42;44.83;95863.28;10238338;28;2005;-65
2023/05/02 05:09:52;;;;;;;;;;;;;;;20.46;44.39;95866.97;10244809;28;2095;-66
2023/05/02 05:14:52;;;;;;;;;;;;;;;20.49;44.52;95865.59;10236279;28;2198;-66
2023/05/02 05:19:52;;;;;;;;;;;;;;;20.53;44.28;95869.28;10234621;28;1906;-65
2023/05/02 05:24:53;;;;;;;;;;;;;;;20.58;44.45;95871.91;10245055;28;1840;-64
2023/05/02 05:29:53;;;;;;;;;;;;;;;20.61;44.34;95882.69;10225755;28;2004;-65
2023/05/02 05:34:53;;;;;;;;;;;;;;;20.59;44.42;95884.78;10234015;28;1960;-67
2023/05/02 05:39:54;;;;;;;;;;;;;;;20.66;44.17;95885.31;10241832;28;2036;-67
2023/05/02 05:44:54;;;;;;;;;;;;;;;20.68;44.25;95904.25;10238827;28;1959;-66
2023/05/02 05:49:55;;;;;;;;;;;;;;;20.71;44.04;95905.56;10238987;28;4871;-66
2023/05/02 05:54:55;;;;;;;;;;;;;;;20.73;43.94;95908.72;10236735;28;1969;-67
2023/05/02 05:59:55;;;;;;;;;;;;;;;20.76;43.82;95913.44;10244389;28;2120;-66
2023/05/02 06:04:56;;;;;;;;;;;;;;;20.77;43.97;95923.69;10238343;28;1981;-66
2023/05/02 06:09:56;;;;;;;;;;;;;;;20.78;43.71;95920.03;10250633;28;2029;-66
2023/05/02 06:14:56;;;;;;;;;;;;;;;20.79;43.97;95929.47;10234284;28;1937;-67
2023/05/02 06:19:56;;;;;;;;;;;;;;;20.81;43.86;95929.22;10242421;28;1984;-67
2023/05/02 06:24:57;;;;;;;;;;;;;;;20.81;43.93;95940.53;10236546;28;2023;-67
2023/05/02 06:29:57;;;;;;;;;;;;;;;20.83;44.36;95942.94;10231371;28;1915;-67
2023/05/02 06:34:57;;;;;;;;;;;;;;;20.82;44.11;95947.41;10236718;28;2023;-66
2023/05/02 06:39:58;;;;;;;;;;;;;;;20.83;44.11;95954.25;10239008;28;1965;-67
2023/05/02 06:44:58;;;;;;;;;;;;;;;20.82;44.25;95959.78;10232687;28;2013;-66
2023/05/02 06:49:58;;;;;;;;;;;;;;;20.80;44.49;95960.06;10235131;28;4864;-66
2023/05/02 06:54:58;;;;;;;;;;;;;;;20.77;44.73;95965.09;10235079;28;1894;-66
2023/05/02 06:59:59;;;;;;;;;;;;;;;20.75;44.85;95973.22;10234012;28;2227;-66
2023/05/02 07:04:59;;;;;;;;;;;;;;;20.74;44.67;95978.78;10232991;28;2058;-66
2023/05/02 07:09:59;;;;;;;;;;;;;;;20.71;44.95;95968.78;10233731;28;2000;-66
2023/05/02 07:15:00;;;;;;;;;;;;;;;20.70;44.71;95975.91;10246282;28;2032;-66
2023/05/02 07:20:00;;;;;;;;;;;;;;;20.69;44.80;95974.31;10248717;28;1949;-67
2023/05/02 07:25:00;;;;;;;;;;;;;;;20.64;45.17;95982.25;10237691;28;1977;-66
2023/05/02 07:30:01;;;;;;;;;;;;;;;20.64;44.99;95976.19;10239228;28;1957;-66
2023/05/02 07:35:01;;;;;;;;;;;;;;;20.62;45.02;95980.94;10233220;28;2018;-66
2023/05/02 07:40:02;;;;;;;;;;;;;;;20.61;45.31;95977.50;10236872;28;1982;-66
2023/05/02 07:45:02;;;;;;;;;;;;;;;20.57;45.20;95981.72;10234127;28;2094;-66
2023/05/02 07:50:03;;;;;;;;;;;;;;;20.56;45.00;95985.44;10237402;28;4866;-65
2023/05/02 07:55:04;;;;;;;;;;;;;;;20.54;45.00;95999.91;10230061;28;2052;-66
2023/05/02 08:00:08;;;;;;;;;;;;;;;20.52;45.31;95999.38;10236926;28;2088;-66
2023/05/02 08:05:08;;;;;;;;;;;;;;;20.48;45.05;95993.88;10239936;28;1933;-66
2023/05/02 08:10:09;;;;;;;;;;;;;;;20.48;44.88;96003.63;10235498;28;2267;-66
2023/05/02 08:15:10;;;;;;;;;;;;;;;20.44;45.03;95999.94;10230758;28;2009;-66
2023/05/02 08:20:11;;;;;;;;;;;;;;;20.42;44.97;96005.47;10247358;28;2050;-66
2023/05/02 08:25:11;;;;;;;;;;;;;;;20.41;44.95;96000.44;10225881;28;2006;-66
2023/05/02 08:30:11;;;;;;;;;;;;;;;20.41;44.84;96006.50;10235804;28;2193;-66
2023/05/02 08:35:11;;;;;;;;;;;;;;;20.41;44.98;96005.72;10231923;28;1910;-66
2023/05/02 08:40:12;;;;;;;;;;;;;;;20.40;45.07;96012.06;10229600;28;1989;-66
2023/05/02 08:45:13;;;;;;;;;;;;;;;20.38;45.04;96019.44;10228265;28;1948;-66
2023/05/02 08:50:13;;;;;;;;;;;;;;;20.36;44.95;96017.03;10225588;28;4886;-66
2023/05/02 08:55:13;;;;;;;;;;;;;;;20.35;44.94;96015.47;10231392;28;2179;-66
2023/05/02 09:00:14;;;;;;;;;;;;;;;20.34;44.97;96027.03;10243535;28;2076;-66
2023/05/02 09:05:15;;;;;;;;;;;;;;;20.33;45.05;96017.59;10231767;28;1972;-66
2023/05/02 09:10:16;;;;;;;;;;;;;;;20.33;44.71;96030.75;10232414;28;1974;-66
2023/05/02 09:15:16;;;;;;;;;;;;;;;20.31;45.01;96035.50;10246398;28;1953;-65
2023/05/02 09:20:16;;;;;;;;;;;;;;;20.29;45.07;96032.34;10242739;28;1969;-66
2023/05/02 09:25:17;;;;;;;;;;;;;;;20.30;44.94;96039.16;10234945;28;1990;-65
2023/05/02 09:30:21;;;;;;;;;;;;;;;20.29;44.94;96037.59;10236555;28;1938;-66
2023/05/02 09:35:24;;;;;;;;;;;;;;;20.27;44.95;96043.13;10240653;28;2095;-66
2023/05/02 09:40:26;;;;;;;;;;;;;;;20.28;44.99;96046.53;10238874;28;1973;-66
2023/05/02 09:45:26;;;;;;;;;;;;;;;20.25;45.13;96058.41;10233535;28;1992;-66
2023/05/02 09:50:33;;;;;;;;;;;;;;;20.25;45.12;96057.59;10241189;28;4890;-66
2023/05/02 09:55:34;;;;;;;;;;;;;;;20.24;44.98;96056.00;10233035;28;1985;-66
2023/05/02 10:00:43;;;;;;;;;;;;;;;20.23;45.12;96055.25;10240123;28;1971;-66
2023/05/02 10:05:44;;;;;;;;;;;;;;;20.22;45.14;96044.97;10241215;28;1934;-66
2023/05/02 10:10:46;;;;;;;;;;;;;;;20.22;45.06;96047.59;10239668;28;1977;-65
2023/05/02 10:15:48;;;;;;;;;;;;;;;20.21;45.22;96053.94;10233186;28;2364;-66
2023/05/02 10:20:55;;;;;;;;;;;;;;;20.20;45.09;96060.22;10233933;28;1972;-65
2023/05/02 10:25:59;;;;;;;;;;;;;;;20.20;44.99;96057.59;10233704;28;1917;-66
2023/05/02 10:31:00;;;;;;;;;;;;;;;20.19;45.00;96054.19;10235046;28;2206;-66
2023/05/02 10:36:00;;;;;;;;;;;;;;;20.18;45.05;96051.78;10231796;28;2024;-66
2023/05/02 10:41:01;;;;;;;;;;;;;;;20.17;44.99;96047.59;10227128;28;2051;-65
2023/05/02 10:46:04;;;;;;;;;;;;;;;20.16;45.11;96046.78;10236757;28;2175;-66
2023/05/02 10:51:04;;;;;;;;;;;;;;;20.16;45.11;96038.09;10253258;28;4869;-66
2023/05/02 10:56:15;;;;;;;;;;;;;;;20.15;45.11;96041.78;10246586;28;1522;-66
2023/05/02 11:01:28;;;;;;;;;;;;;;;20.14;45.01;96046.25;10249531;28;1992;-65
2023/05/02 11:06:28;;;;;;;;;;;;;;;20.13;45.20;96044.66;10236395;28;2076;-66
2023/05/02 11:11:39;;;;;;;;;;;;;;;20.13;45.25;96041.25;10233030;28;1989;-66
2023/05/02 11:17:04;;;;;;;;;;;;;;;20.12;45.16;96044.94;10229178;28;1974;-66
2023/05/02 11:22:17;;;;;;;;;;;;;;;20.10;45.08;96049.66;10232556;28;1966;-66
2023/05/02 11:27:40;;;;;;;;;;;;;;;20.09;45.11;96048.09;10236853;28;2183;-66
2023/05/02 11:32:52;;;;;;;;;;;;;;;20.09;44.89;96053.38;10234968;28;1986;-65
2023/05/02 11:37:59;;;;;;;;;;;;;;;20.08;44.99;96063.09;10225871;28;2011;-66
2023/05/02 11:43:03;;;;;;;;;;;;;;;20.07;45.09;96066.00;10225482;28;2152;-65
2023/05/02 11:48:06;;;;;;;;;;;;;;;20.07;45.02;96076.53;10231735;28;1986;-65
2023/05/02 11:53:09;;;;;;;;;;;;;;;20.06;45.06;96069.66;10230156;28;2004;-65
2023/05/02 11:58:13;;;;;;;;;;;;;;;20.07;44.90;96068.63;10216863;28;1976;-66
2023/05/02 12:03:21;;;;;;;;;;;;;;;20.05;44.87;96068.09;10239431;28;1958;-66
2023/05/02 12:08:25;;;;;;;;;;;;;;;20.05;44.89;96068.09;10234500;28;1993;-65
2023/05/02 12:13:25;;;;;;;;;;;;;;;20.05;44.71;96068.88;10228788;28;2136;-65
2023/05/02 12:18:26;;;;;;;;;;;;;;;20.03;44.82;96065.72;10236782;28;1957;-66
2023/05/02 12:23:26;;;;;;;;;;;;;;;20.03;45.01;96065.72;10231145;28;2001;-66
2023/05/02 12:28:26;;;;;;;;;;;;;;;20.04;45.06;96064.69;10228618;28;1978;-66
2023/05/02 12:33:26;;;;;;;;;;;;;;;20.03;44.93;96062.31;10233306;28;2274;-66
2023/05/02 12:38:27;;;;;;;;;;;;;;;20.02;44.92;96063.34;10226677;28;2057;-66
2023/05/02 12:43:27;;;;;;;;;;;;;;;20.02;44.96;96061.53;10229373;28;1878;-66
2023/05/02 12:48:27;;;;;;;;;;;;;;;20.00;44.88;96062.81;10230774;28;5000;-65
2023/05/02 12:53:37;;;;;;;;;;;;;;;20.01;44.88;96062.56;10240649;28;1950;-66
2023/05/02 12:58:40;;;;;;;;;;;;;;;20.01;44.84;96072.31;10232022;28;1931;-66
2023/05/02 13:03:41;;;;;;;;;;;;;;;20.02;44.87;96063.34;10236539;28;1891;-66
2023/05/02 13:08:41;;;;;;;;;;;;;;;20.01;45.02;96067.81;10243972;28;1960;-66
2023/05/02 13:13:42;;;;;;;;;;;;;;;20.01;44.90;96067.06;10225795;28;1848;-66
2023/05/02 13:18:42;;;;;;;;;;;;;;;20.01;44.96;96072.31;10235974;28;1896;-66
2023/05/02 13:23:43;;;;;;;;;;;;;;;20.01;44.94;96074.94;10241067;28;1830;-66
2023/05/02 13:28:43;;;;;;;;;;;;;;;20.00;45.06;96068.09;10230186;28;1971;-66
2023/05/02 13:33:43;;;;;;;;;;;;;;;19.99;44.82;96077.81;10233004;28;2156;-66
2023/05/02 13:38:43;;;;;;;;;;;;;;;20.01;44.90;96069.69;10232992;28;2020;-66
2023/05/02 13:43:44;;;;;;;;;;;;;;;20.03;45.19;96070.22;10229799;28;2362;-65
2023/05/02 13:48:44;;;;;;;;;;;;;;;20.04;45.02;96077.84;10231621;28;5047;-65
2023/05/02 13:53:44;;;;;;;;;;;;;;;20.08;45.02;96104.41;10225068;28;1959;-66
2023/05/02 13:58:45;;;;;;;;;;;;;;;20.11;45.16;96119.69;10232735;28;2015;-65
2023/05/02 14:03:45;;;;;;;;;;;;;;;20.15;44.97;96120.75;10225337;28;2204;-65
2023/05/02 14:08:45;;;;;;;;;;;;;;;20.17;45.07;96122.03;10240551;28;1958;-65
2023/05/02 14:13:46;;;;;;;;;;;;;;;20.22;44.79;96126.56;10233253;28;2023;-65
2023/05/02 14:18:46;;;;;;;;;;;;;;;20.25;44.73;96123.41;10244284;28;1844;-65
2023/05/02 14:23:46;;;;;;;;;;;;;;;20.27;44.73;96121.31;10235676;28;1873;-65
2023/05/02 14:28:46;;;;;;;;;;;;;;;20.30;44.77;96118.13;10249250;28;1938;-65
2023/05/02 14:33:47;;;;;;;;;;;;;;;20.36;44.45;96111.06;10247181;28;2211;-66
2023/05/02 14:38:47;;;;;;;;;;;;;;;20.37;44.40;96116.06;10256261;28;1852;-65
2023/05/02 14:43:47;;;;;;;;;;;;;;;20.42;44.44;96113.44;10254745;28;2043;-65
2023/05/02 14:48:47;;;;;;;;;;;;;;;20.45;44.32;96120.78;10246651;28;4814;-65
2023/05/02 14:53:48;;;;;;;;;;;;;;;20.48;44.27;96109.75;10235594;28;2103;-66
2023/05/02 14:58:48;;;;;;;;;;;;;;;20.51;44.20;96105.75;10247002;28;2102;-65
2023/05/02 15:03:50;;;;;;;;;;;;;;;20.53;44.07;96108.94;10226660;28;1857;-65
2023/05/02 15:08:50;;;;;;;;;;;;;;;20.55;43.87;96110.25;10241635;28;2092;-66
2023/05/02 15:13:51;;;;;;;;;;;;;;;20.57;43.73;96108.13;10238089;28;1856;-65
2023/05/02 15:18:51;;;;;;;;;;;;;;;20.60;43.94;96099.72;10246648;28;1849;-66
2023/05/02 15:23:52;;;;;;;;;;;;;;;20.61;44.09;96090.75;10237186;28;1825;-67
2023/05/02 15:28:52;;;;;;;;;;;;;;;20.65;44.10;96094.44;10227549;28;2111;-66
2023/05/02 15:33:52;;;;;;;;;;;;;;;20.66;44.24;96084.69;10221074;28;1884;-66
2023/05/02 15:38:52;;;;;;;;;;;;;;;20.67;44.24;96088.91;10220110;28;1919;-67
2023/05/02 15:43:52;;;;;;;;;;;;;;;20.70;44.39;96091.00;10223322;28;1912;-61
2023/05/02 15:48:53;;;;;;;;;;;;;;;20.71;44.46;96092.59;10220052;28;4979;-64
2023/05/02 15:53:53;;;;;;;;;;;;;;;20.70;44.50;96097.06;10227890;28;1836;-65
2023/05/02 15:58:53;;;;;;;;;;;;;;;20.73;44.57;96112.34;10234922;28;2184;-65
2023/05/02 16:03:54;;;;;;;;;;;;;;;20.70;44.85;96104.19;10227573;28;1996;-65
2023/05/02 16:08:55;;;;;;;;;;;;;;;20.68;44.68;96109.72;10226732;28;2047;-66
2023/05/02 16:13:55;;;;;;;;;;;;;;;20.67;44.33;96123.94;10229203;28;1899;-66
2023/05/02 16:18:55;;;;;;;;;;;;;;;20.66;44.63;96140.81;10219696;28;1967;-66
2023/05/02 16:23:55;;;;;;;;;;;;;;;20.64;44.54;96153.44;10235445;28;2052;-66
2023/05/02 16:28:56;;;;;;;;;;;;;;;20.61;44.41;96159.22;10220675;28;1976;-65
2023/05/02 16:33:57;;;;;;;;;;;;;;;20.60;44.60;96181.38;10231556;28;1903;-65
2023/05/02 16:38:58;;;;;;;;;;;;;;;20.58;44.62;96199.28;10231652;28;1856;-65
2023/05/02 16:43:58;;;;;;;;;;;;;;;20.57;44.85;96205.59;10222087;28;2020;-64
2023/05/02 16:48:58;;;;;;;;;;;;;;;20.57;44.78;96216.13;10228300;28;4916;-65
2023/05/02 16:53:58;;;;;;;;;;;;;;;20.56;45.18;96233.00;10225494;28;1884;-65
2023/05/02 16:58:59;;;;;;;;;;;;;;;20.52;44.92;96239.84;10228664;28;2083;-65
2023/05/02 17:03:59;;;;;;;;;;;;;;;20.51;45.30;96232.97;10229162;28;1885;-66
2023/05/02 17:09:00;;;;;;;;;;;;;;;20.53;45.13;96237.97;10231947;28;2346;-66
2023/05/02 17:14:00;;;;;;;;;;;;;;;20.52;45.29;96234.56;10221902;28;1895;-66
2023/05/02 17:19:01;;;;;;;;;;;;;;;20.51;45.38;96232.19;10232721;28;2312;-66
2023/05/02 17:24:01;;;;;;;;;;;;;;;20.54;45.71;96229.84;10225975;28;1854;-66
2023/05/02 17:29:01;;;;;;;;;;;;;;;20.53;45.99;96212.44;10225736;28;1907;-65
2023/05/02 17:34:02;;;;;;;;;;;;;;;20.53;45.79;96217.69;10223686;28;1914;-66
2023/05/02 17:39:02;;;;;;;;;;;;;;;20.54;46.01;96215.88;10229423;28;1841;-66
2023/05/02 17:44:03;;;;;;;;;;;;;;;20.50;45.90;96210.34;10230616;28;1829;-65
2023/05/02 17:49:03;;;;;;;;;;;;;;;20.48;45.62;96215.06;10230870;28;4900;-65
2023/05/02 17:54:04;;;;;;;;;;;;;;;20.48;45.84;96222.19;10226429;28;2233;-66
2023/05/02 17:59:04;;;;;;;;;;;;;;;20.47;45.39;96228.47;10228543;28;1890;-65
2023/05/02 18:04:05;;;;;;;;;;;;;;;20.45;45.53;96241.91;10230401;28;1948;-69
2023/05/02 18:09:06;;;;;;;;;;;;;;;20.43;45.49;96225.59;10230801;28;1942;-66
2023/05/02 18:14:06;;;;;;;;;;;;;;;20.42;45.36;96237.19;10231789;28;1970;-64
2023/05/02 18:19:07;;;;;;;;;;;;;;;20.43;45.27;96232.69;10238811;28;2412;-65
2023/05/02 18:24:07;;;;;;;;;;;;;;;20.43;45.39;96237.97;10228589;28;1955;-69
2023/05/02 18:29:08;;;;;;;;;;;;;;;20.45;45.62;96241.91;10248692;28;1954;-67
2023/05/02 18:34:08;;;;;;;;;;;;;;;20.46;46.01;96254.06;10248799;28;1899;-66
2023/05/02 18:39:08;;;;;;;;;;;;;;;20.46;46.12;96266.41;10244938;28;1915;-66
2023/05/02 18:44:10;;;;;;;;;;;;;;;20.49;46.35;96263.25;10237256;28;1889;-67
2023/05/02 18:49:10;;;;;;;;;;;;;;;20.52;46.24;96270.63;10238380;28;4940;-68
2023/05/02 18:54:11;;;;;;;;;;;;;;;20.51;46.37;96280.38;10245920;28;1907;-67
2023/05/02 18:59:11;;;;;;;;;;;;;;;20.54;46.50;96287.78;10247980;28;1880;-68
2023/05/02 19:04:11;;;;;;;;;;;;;;;20.55;46.13;96294.59;10244715;28;1879;-67
2023/05/02 19:09:12;;;;;;;;;;;;;;;20.58;46.57;96294.09;10253892;28;1903;-68
2023/05/02 19:14:12;;;;;;;;;;;;;;;20.59;46.61;96290.41;10225457;28;1887;-68
2023/05/02 19:19:13;;;;;;;;;;;;;;;20.62;46.72;96294.38;10233312;28;1884;-68
2023/05/02 19:24:13;;;;;;;;;;;;;;;20.64;46.45;96287.78;10229987;28;2007;-68
2023/05/02 19:29:13;;;;;;;;;;;;;;;20.66;46.66;96295.41;10247991;28;2036;-68
2023/05/02 19:34:13;;;;;;;;;;;;;;;20.68;46.36;96298.59;10249962;28;1954;-68
2023/05/02 19:39:14;;;;;;;;;;;;;;;20.69;46.59;96300.97;10237861;28;1959;-68
2023/05/02 19:44:15;;;;;;;;;;;;;;;20.70;45.98;96313.09;10251880;28;1890;-68
2023/05/02 19:49:15;;;;;;;;;;;;;;;20.72;46.35;96316.25;10251103;28;4899;-72
2023/05/02 19:54:15;;;;;;;;;;;;;;;20.72;46.35;96320.72;10241687;28;1979;-66
2023/05/02 19:59:16;;;;;;;;;;;;;;;20.72;45.92;96320.72;10239710;28;1906;-66
2023/05/02 20:04:16;;;;;;;;;;;;;;;20.68;46.24;96317.03;10240763;28;1975;-66
2023/05/02 20:09:16;;;;;;;;;;;;;;;20.66;46.33;96322.56;10230867;28;2234;-66
2023/05/02 20:14:17;;;;;;;;;;;;;;;20.66;46.14;96327.03;10241837;28;1828;-67
2023/05/02 20:19:17;;;;;;;;;;;;;;;20.64;46.31;96337.84;10254238;28;1803;-65
2023/05/02 20:24:18;;;;;;;;;;;;;;;20.63;46.13;96336.25;10232668;28;1847;-66
2023/05/02 20:29:18;;;;;;;;;;;;;;;20.61;47.09;96340.97;10234300;28;1969;-66
2023/05/02 20:34:18;;;;;;;;;;;;;;;20.62;48.27;96342.56;10246770;28;1892;-66
2023/05/02 20:39:21;;;;;;;;;;;;;;;20.62;48.27;96339.16;10240972;28;1919;-67
2023/05/02 20:44:21;;;;;;;;;;;;;;;20.61;48.32;96333.06;10229438;28;1996;-65
2023/05/02 20:49:22;;;;;;;;;;;;;;;20.61;48.36;96338.34;10255779;28;4941;-66
2023/05/02 20:54:22;;;;;;;;;;;;;;;20.59;48.68;96342.28;10252378;28;1913;-67
2023/05/02 20:59:24;;;;;;;;;;;;;;;20.58;48.42;96341.50;10240398;28;1918;-67
2023/05/02 21:04:24;;;;;;;;;;;;;;;20.58;48.27;96340.72;10249190;28;1974;-67
2023/05/02 21:09:24;;;;;;;;;;;;;;;20.54;48.88;96332.53;10254430;28;1917;-67
2023/05/02 21:14:25;;;;;;;;;;;;;;;20.55;48.40;96341.22;10250483;28;1806;-68
2023/05/02 21:19:25;;;;;;;;;;;;;;;20.52;48.45;96324.13;10255498;28;1911;-67
2023/05/02 21:24:25;;;;;;;;;;;;;;;20.53;48.66;96340.69;10256287;28;1817;-68
2023/05/02 21:29:26;;;;;;;;;;;;;;;20.51;48.64;96335.69;10253149;28;1970;-68
2023/05/02 21:34:26;;;;;;;;;;;;;;;20.51;48.33;96335.69;10244504;28;1872;-68
2023/05/02 21:39:26;;;;;;;;;;;;;;;20.48;48.44;96330.94;10249526;28;2034;-68
2023/05/02 21:44:27;;;;;;;;;;;;;;;20.48;48.66;96333.59;10254673;28;1470;-68
2023/05/02 21:49:28;;;;;;;;;;;;;;;20.45;48.50;96333.28;10248338;28;4884;-68
2023/05/02 21:54:29;;;;;;;;;;;;;;;20.44;48.61;96324.63;10244395;28;1812;-67
2023/05/02 21:59:29;;;;;;;;;;;;;;;20.42;48.64;96323.28;10255973;28;1805;-67
2023/05/02 22:04:29;;;;;;;;;;;;;;;20.42;48.65;96333.81;10250598;28;2409;-68
2023/05/02 22:09:30;;;;;;;;;;;;;;;20.40;48.62;96328.81;10239555;28;1916;-68
2023/05/02 22:14:30;;;;;;;;;;;;;;;20.39;48.62;96327.22;10240464;28;1846;-68
2023/05/02 22:19:30;;;;;;;;;;;;;;;20.36;48.76;96327.72;10248871;28;2008;-68
2023/05/02 22:24:31;;;;;;;;;;;;;;;20.36;48.53;96321.69;10231858;28;1829;-69
2023/05/02 22:29:32;;;;;;;;;;;;;;;20.36;48.48;96327.72;10248325;28;1938;-68
2023/05/02 22:34:32;;;;;;;;;;;;;;;20.35;48.35;96331.41;10246733;28;1777;-68
2023/05/02 22:39:32;;;;;;;;;;;;;;;20.33;48.37;96336.16;10246388;28;1903;-68
2023/05/02 22:44:32;;;;;;;;;;;;;;;20.32;48.31;96336.41;10248547;28;1809;-68
2023/05/02 22:49:33;;;;;;;;;;;;;;;20.31;48.10;96342.72;10249606;28;5008;-68
2023/05/02 22:54:33;;;;;;;;;;;;;;;20.31;47.85;96343.50;10242824;28;1896;-67
2023/05/02 22:59:33;;;;;;;;;;;;;;;20.27;48.22;96339.81;10251926;28;2027;-68
2023/05/02 23:04:34;;;;;;;;;;;;;;;20.27;48.04;96342.44;10225627;28;2123;-68
2023/05/02 23:09:34;;;;;;;;;;;;;;;20.25;48.24;96342.72;10226047;28;1998;-68
2023/05/02 23:14:34;;;;;;;;;;;;;;;20.23;48.11;96336.91;10246198;28;1872;-68
2023/05/02 23:19:35;;;;;;;;;;;;;;;20.21;48.02;96328.47;10250846;28;1873;-68
2023/05/02 23:24:35;;;;;;;;;;;;;;;20.23;47.92;96333.47;10246720;28;1852;-68
2023/05/02 23:29:35;;;;;;;;;;;;;;;20.21;47.92;96330.31;10244936;28;1939;-68
2023/05/02 23:34:36;;;;;;;;;;;;;;;20.20;47.98;96326.88;10242936;28;1887;-68
2023/05/02 23:39:36;;;;;;;;;;;;;;;20.20;47.95;96329.50;10247699;28;1808;-67
2023/05/02 23:44:36;;;;;;;;;;;;;;;20.18;47.86;96322.88;10236612;28;1837;-68
2023/05/02 23:49:37;;;;;;;;;;;;;;;20.18;48.03;96328.16;10239480;28;4912;-68
2023/05/02 23:54:37;;;;;;;;;;;;;;;20.17;47.67;96324.72;10233006;28;2079;-68
2023/05/02 23:59:37;;;;;;;;;;;;;;;20.16;47.87;96325.78;10243729;28;1829;-68
